createdAt,value
2023-05-21T00:01:43.861Z,101497.34
2023-05-21T00:04:11.913Z,101491.28
2023-05-21T00:06:38.804Z,101493.44
2023-05-21T00:09:06.730Z,101496.47
2023-05-21T00:11:33.756Z,101489.53
2023-05-21T00:14:00.628Z,101484.31
2023-05-21T00:16:27.523Z,101490.84
2023-05-21T00:18:55.245Z,101480.31
2023-05-21T00:21:23.132Z,101479.56
2023-05-21T00:23:50.258Z,101475.22
2023-05-21T00:26:17.078Z,101471.00
2023-05-21T00:28:44.000Z,101473.03
2023-05-21T00:31:10.788Z,101468.66
2023-05-21T00:33:37.675Z,101469.78
2023-05-21T00:36:06.098Z,101467.16
2023-05-21T00:38:33.126Z,101466.31
2023-05-21T00:41:03.522Z,101465.41
2023-05-21T00:43:30.332Z,101463.69
2023-05-21T00:45:59.255Z,101457.41
2023-05-21T00:48:26.251Z,101461.09
2023-05-21T00:50:53.536Z,101459.56
2023-05-21T00:53:20.644Z,101454.34
2023-05-21T00:55:49.022Z,101450.03
2023-05-21T00:58:17.867Z,101449.13
2023-05-21T01:00:45.595Z,101451.09
2023-05-21T01:03:14.609Z,101449.38
2023-05-21T01:05:45.154Z,101450.34
2023-05-21T01:08:12.907Z,101447.84
2023-05-21T01:10:39.765Z,101448.06
2023-05-21T01:13:07.369Z,101442.63
2023-05-21T01:15:38.316Z,101450.88
2023-05-21T01:18:06.087Z,101438.28
2023-05-21T01:20:33.399Z,101448.28
2023-05-21T01:23:00.723Z,101455.66
2023-05-21T01:25:27.589Z,101444.81
2023-05-21T01:27:54.516Z,101443.94
2023-05-21T01:30:24.684Z,101439.38
2023-05-21T01:33:05.066Z,101442.09
2023-05-21T01:36:04.698Z,101446.31
2023-05-21T01:38:41.321Z,101438.94
2023-05-21T01:41:12.594Z,101436.13
2023-05-21T01:43:43.933Z,101437.88
2023-05-21T01:46:21.277Z,101433.97
2023-05-21T01:48:50.429Z,101431.03
2023-05-21T01:51:17.836Z,101438.06
2023-05-21T01:53:45.064Z,101434.41
2023-05-21T01:56:12.667Z,101431.59
2023-05-21T01:58:39.535Z,101433.97
2023-05-21T02:01:06.613Z,101437.44
2023-05-21T02:03:33.966Z,101435.47
2023-05-21T02:06:01.141Z,101431.78
2023-05-21T02:08:28.034Z,101429.84
2023-05-21T02:10:55.597Z,101430.59
2023-05-21T02:13:25.188Z,101423.13
2023-05-21T02:15:54.822Z,101431.16
2023-05-21T02:18:22.622Z,101428.25
2023-05-21T02:20:49.766Z,101424.53
2023-05-21T02:23:17.001Z,101418.03
2023-05-21T02:25:43.967Z,101421.59
2023-05-21T02:28:10.863Z,101419.66
2023-05-21T02:30:37.710Z,101422.34
2023-05-21T02:33:04.664Z,101431.16
2023-05-21T02:35:33.428Z,101420.94
2023-05-21T02:38:02.958Z,101422.44
2023-05-21T02:40:29.893Z,101420.47
2023-05-21T02:42:56.902Z,101419.50
2023-05-21T02:45:24.271Z,101418.41
2023-05-21T02:47:51.234Z,101414.63
2023-05-21T02:50:19.748Z,101412.66
2023-05-21T02:52:55.801Z,101417.09
2023-05-21T02:55:22.854Z,101409.47
2023-05-21T02:57:50.687Z,101423.69
2023-05-21T03:00:21.054Z,101414.59
2023-05-21T03:02:48.080Z,101416.31
2023-05-21T03:05:15.034Z,101414.59
2023-05-21T03:07:42.474Z,101410.00
2023-05-21T03:10:11.084Z,101411.72
2023-05-21T03:12:38.188Z,101411.72
2023-05-21T03:15:05.922Z,101408.06
2023-05-21T03:17:33.170Z,101404.59
2023-05-21T03:20:00.862Z,101402.84
2023-05-21T03:22:27.707Z,101405.81
2023-05-21T03:24:54.690Z,101403.31
2023-05-21T03:27:21.616Z,101392.66
2023-05-21T03:29:48.460Z,101392.91
2023-05-21T03:32:15.770Z,101395.84
2023-05-21T03:34:43.731Z,101390.63
2023-05-21T03:37:11.049Z,101395.53
2023-05-21T03:39:38.104Z,101387.63
2023-05-21T03:42:06.322Z,101395.97
2023-05-21T03:44:44.373Z,101385.34
2023-05-21T03:47:22.638Z,101387.53
2023-05-21T03:49:50.612Z,101385.03
2023-05-21T03:52:17.394Z,101393.19
2023-05-21T03:54:44.228Z,101396.84
2023-05-21T03:57:11.265Z,101392.44
2023-05-21T03:59:38.371Z,101397.06
2023-05-21T04:02:05.439Z,101397.19
2023-05-21T04:04:33.748Z,101397.28
2023-05-21T04:07:01.121Z,101398.25
2023-05-21T04:09:28.227Z,101404.66
2023-05-21T04:11:55.238Z,101404.66
2023-05-21T04:14:25.432Z,101400.22
2023-05-21T04:16:53.388Z,101396.63
2023-05-21T04:19:22.954Z,101398.50
2023-05-21T04:21:50.555Z,101397.50
2023-05-21T04:24:18.633Z,101405.63
2023-05-21T04:26:51.036Z,101405.53
2023-05-21T04:29:21.089Z,101401.84
2023-05-21T04:31:49.734Z,101400.84
2023-05-21T04:34:18.025Z,101399.03
2023-05-21T04:36:46.041Z,101410.63
2023-05-21T04:39:14.686Z,101405.22
2023-05-21T04:41:41.565Z,101402.50
2023-05-21T04:44:09.781Z,101414.31
2023-05-21T04:46:38.917Z,101411.59
2023-05-21T04:49:10.283Z,101413.44
2023-05-21T04:51:38.913Z,101411.59
2023-05-21T04:54:06.136Z,101403.47
2023-05-21T04:56:33.903Z,101407.91
2023-05-21T04:59:04.640Z,101407.84
2023-05-21T05:01:35.417Z,101412.16
2023-05-21T05:04:02.624Z,101405.75
2023-05-21T05:06:31.169Z,101411.06
2023-05-21T05:08:58.103Z,101414.53
2023-05-21T05:11:26.398Z,101412.72
2023-05-21T05:13:53.287Z,101408.16
2023-05-21T05:16:25.355Z,101408.78
2023-05-21T05:18:53.651Z,101407.84
2023-05-21T05:21:23.930Z,101413.75
2023-05-21T05:23:50.870Z,101404.44
2023-05-21T05:26:18.516Z,101400.50
2023-05-21T05:28:46.314Z,101400.31
2023-05-21T05:31:13.411Z,101400.06
2023-05-21T05:33:41.470Z,101401.56
2023-05-21T05:36:08.742Z,101400.13
2023-05-21T05:38:36.703Z,101404.38
2023-05-21T05:41:03.854Z,101399.59
2023-05-21T05:43:30.816Z,101405.41
2023-05-21T05:46:00.128Z,101403.00
2023-05-21T05:48:27.155Z,101404.28
2023-05-21T05:50:55.000Z,101401.06
2023-05-21T05:53:24.639Z,101403.09
2023-05-21T05:55:51.558Z,101397.19
2023-05-21T05:58:18.849Z,101400.19
2023-05-21T06:00:56.786Z,101401.84
2023-05-21T06:03:24.939Z,101414.63
2023-05-21T06:05:53.338Z,101413.69
2023-05-21T06:08:20.613Z,101411.00
2023-05-21T06:10:47.439Z,101403.47
2023-05-21T06:13:15.194Z,101410.78
2023-05-21T06:15:43.405Z,101413.28
2023-05-21T06:18:11.432Z,101407.81
2023-05-21T06:20:38.598Z,101400.41
2023-05-21T06:23:07.276Z,101410.16
2023-05-21T06:25:34.460Z,101406.06
2023-05-21T06:28:01.459Z,101408.16
2023-05-21T06:30:30.078Z,101409.72
2023-05-21T06:32:57.612Z,101413.78
2023-05-21T06:35:25.208Z,101408.69
2023-05-21T06:37:52.039Z,101409.41
2023-05-21T06:40:20.598Z,101420.25
2023-05-21T06:42:47.932Z,101408.56
2023-05-21T06:45:33.392Z,101409.00
2023-05-21T06:48:06.843Z,101414.13
2023-05-21T06:50:33.823Z,101410.03
2023-05-21T06:53:01.372Z,101403.63
2023-05-21T06:55:29.488Z,101400.66
2023-05-21T06:58:14.102Z,101408.03
2023-05-21T07:00:41.198Z,101399.91
2023-05-21T07:03:08.296Z,101399.16
2023-05-21T07:05:36.362Z,101396.03
2023-05-21T07:08:03.383Z,101399.47
2023-05-21T07:10:30.224Z,101405.66
2023-05-21T07:12:57.941Z,101397.91
2023-05-21T07:15:24.770Z,101388.88
2023-05-21T07:17:51.707Z,101388.16
2023-05-21T07:20:19.384Z,101389.31
2023-05-21T07:22:49.566Z,101383.13
2023-05-21T07:25:17.481Z,101383.28
2023-05-21T07:27:44.709Z,101393.16
2023-05-21T07:30:11.984Z,101384.94
2023-05-21T07:32:38.853Z,101390.91
2023-05-21T07:35:07.242Z,101391.56
2023-05-21T07:37:34.940Z,101390.81
2023-05-21T07:40:02.410Z,101382.28
2023-05-21T07:42:31.149Z,101389.19
2023-05-21T07:44:58.505Z,101383.66
2023-05-21T07:47:27.111Z,101397.34
2023-05-21T07:49:54.263Z,101396.03
2023-05-21T07:52:21.459Z,101388.44
2023-05-21T07:54:48.303Z,101391.97
2023-05-21T07:57:15.472Z,101389.19
2023-05-21T07:59:51.688Z,101388.16
2023-05-21T08:02:18.844Z,101393.28
2023-05-21T08:04:46.339Z,101390.91
2023-05-21T08:07:16.991Z,101396.56
2023-05-21T08:09:44.236Z,101394.31
2023-05-21T08:12:14.400Z,101388.66
2023-05-21T08:14:42.615Z,101389.69
2023-05-21T08:17:12.030Z,101396.91
2023-05-21T08:19:39.148Z,101386.00
2023-05-21T08:22:07.670Z,101388.75
2023-05-21T08:24:37.653Z,101384.94
2023-05-21T08:27:06.507Z,101373.09
2023-05-21T08:29:35.127Z,101384.81
2023-05-21T08:32:03.081Z,101379.81
2023-05-21T08:34:30.023Z,101373.16
2023-05-21T08:37:11.857Z,101387.28
2023-05-21T08:40:01.874Z,101380.88
2023-05-21T08:42:49.900Z,101370.34
2023-05-21T08:45:23.795Z,101379.41
2023-05-21T08:47:59.405Z,101369.41
2023-05-21T08:50:31.643Z,101380.44
2023-05-21T08:53:05.639Z,101370.69
2023-05-21T08:55:43.514Z,101372.25
2023-05-21T08:58:11.157Z,101364.00
2023-05-21T09:00:38.691Z,101370.56
2023-05-21T09:03:11.615Z,101363.91
2023-05-21T09:05:42.581Z,101362.72
2023-05-21T09:08:21.756Z,101362.41
2023-05-21T09:10:56.019Z,101356.03
2023-05-21T09:13:32.812Z,101360.09
2023-05-21T09:16:02.477Z,101363.53
2023-05-21T09:18:29.551Z,101359.53
2023-05-21T09:21:31.460Z,101353.16
2023-05-21T09:24:11.042Z,101361.06
2023-05-21T09:26:38.204Z,101350.66
2023-05-21T09:29:06.793Z,101354.25
2023-05-21T09:31:35.113Z,101344.88
2023-05-21T09:34:02.129Z,101341.84
2023-05-21T09:36:32.197Z,101351.63
2023-05-21T09:39:00.295Z,101350.31
2023-05-21T09:41:35.874Z,101347.09
2023-05-21T09:44:04.919Z,101350.13
2023-05-21T09:46:41.572Z,101347.91
2023-05-21T09:49:26.429Z,101343.34
2023-05-21T09:51:59.979Z,101344.41
2023-05-21T09:54:34.810Z,101340.34
2023-05-21T09:57:05.568Z,101339.97
2023-05-21T09:59:39.449Z,101333.91
2023-05-21T10:02:19.665Z,101336.00
2023-05-21T10:04:50.501Z,101341.06
2023-05-21T10:07:26.416Z,101330.38
2023-05-21T10:09:56.609Z,101337.75
2023-05-21T10:12:27.600Z,101329.19
2023-05-21T10:15:03.833Z,101325.91
2023-05-21T10:17:31.512Z,101327.84
2023-05-21T10:20:00.623Z,101332.44
2023-05-21T10:22:28.531Z,101327.31
2023-05-21T10:24:57.683Z,101319.59
2023-05-21T10:27:24.835Z,101321.41
2023-05-21T10:29:55.493Z,101320.97
2023-05-21T10:32:24.220Z,101315.69
2023-05-21T10:34:54.417Z,101322.19
2023-05-21T10:37:28.210Z,101322.44
2023-05-21T10:39:56.486Z,101327.97
2023-05-21T10:42:32.457Z,101316.16
2023-05-21T10:45:53.472Z,101306.81
2023-05-21T10:49:15.607Z,101301.50
2023-05-21T10:51:42.393Z,101304.44
2023-05-21T10:54:50.005Z,101295.41
2023-05-21T10:57:41.488Z,101294.06
2023-05-21T11:00:12.339Z,101295.50
2023-05-21T11:02:39.912Z,101295.13
2023-05-21T11:05:07.524Z,101300.16
2023-05-21T11:07:57.653Z,101288.63
2023-05-21T11:10:45.220Z,101287.41
2023-05-21T11:13:19.836Z,101281.97
2023-05-21T11:15:59.082Z,101285.78
2023-05-21T11:18:38.459Z,101283.31
2023-05-21T11:21:10.738Z,101283.28
2023-05-21T11:23:51.144Z,101276.53
2023-05-21T11:26:31.130Z,101274.91
2023-05-21T11:29:08.615Z,101276.41
2023-05-21T11:31:39.485Z,101264.19
2023-05-21T11:34:35.011Z,101262.00
2023-05-21T11:37:23.032Z,101260.50
2023-05-21T11:39:51.558Z,101257.16
2023-05-21T11:42:39.353Z,101255.91
2023-05-21T11:45:07.228Z,101264.22
2023-05-21T11:47:34.287Z,101264.88
2023-05-21T11:50:04.480Z,101251.00
2023-05-21T11:52:32.897Z,101255.13
2023-05-21T11:55:00.005Z,101251.03
2023-05-21T11:57:32.185Z,101252.34
2023-05-21T12:00:13.834Z,101254.47
2023-05-21T12:02:55.533Z,101249.09
2023-05-21T12:05:23.738Z,101249.56
2023-05-21T12:07:51.045Z,101254.75
2023-05-21T12:10:22.974Z,101246.63
2023-05-21T12:12:56.270Z,101250.03
2023-05-21T12:15:26.685Z,101245.31
2023-05-21T12:17:55.201Z,101243.78
2023-05-21T12:20:22.683Z,101237.53
2023-05-21T12:22:50.387Z,101244.59
2023-05-21T12:25:20.596Z,101244.03
2023-05-21T12:27:52.664Z,101235.03
2023-05-21T12:30:20.684Z,101231.59
2023-05-21T12:32:49.228Z,101232.50
2023-05-21T12:35:24.203Z,101217.13
2023-05-21T12:37:51.970Z,101213.03
2023-05-21T12:40:20.039Z,101207.69
2023-05-21T12:42:47.180Z,101214.56
2023-05-21T12:45:14.708Z,101209.00
2023-05-21T12:47:41.773Z,101211.56
2023-05-21T12:50:13.967Z,101205.16
2023-05-21T12:52:44.197Z,101209.41
2023-05-21T12:55:14.989Z,101210.72
2023-05-21T12:57:43.835Z,101212.88
2023-05-21T13:00:11.670Z,101207.31
2023-05-21T13:02:41.645Z,101224.41
2023-05-21T13:05:16.338Z,101218.84
2023-05-21T13:07:46.706Z,101227.41
2023-05-21T13:10:18.609Z,101226.72
2023-05-21T13:12:45.759Z,101221.75
2023-05-21T13:15:12.922Z,101228.06
2023-05-21T13:17:40.003Z,101236.41
2023-05-21T13:20:30.434Z,101232.34
2023-05-21T13:22:57.887Z,101244.19
2023-05-21T13:25:29.877Z,101243.22
2023-05-21T13:27:58.042Z,101233.59
2023-05-21T13:30:25.101Z,101233.06
2023-05-21T13:32:52.407Z,101226.13
2023-05-21T13:35:19.747Z,101228.91
2023-05-21T13:37:46.664Z,101233.91
2023-05-21T13:40:16.313Z,101228.41
2023-05-21T13:42:45.598Z,101227.00
2023-05-21T13:45:17.446Z,101228.72
2023-05-21T13:47:45.568Z,101220.25
2023-05-21T13:50:13.018Z,101220.88
2023-05-21T13:52:40.159Z,101219.44
2023-05-21T13:55:07.666Z,101209.03
2023-05-21T13:57:34.872Z,101216.25
2023-05-21T14:00:02.092Z,101214.13
2023-05-21T14:02:34.757Z,101214.16
2023-05-21T14:05:01.715Z,101214.56
2023-05-21T14:07:28.596Z,101213.03
2023-05-21T14:09:56.080Z,101202.13
2023-05-21T14:12:23.016Z,101209.38
2023-05-21T14:14:50.098Z,101199.22
2023-05-21T14:17:16.998Z,101198.56
2023-05-21T14:19:43.854Z,101202.31
2023-05-21T14:22:10.950Z,101202.56
2023-05-21T14:24:43.935Z,101198.75
2023-05-21T14:27:12.169Z,101196.97
2023-05-21T14:29:39.996Z,101194.28
2023-05-21T14:32:07.945Z,101197.81
2023-05-21T14:34:34.863Z,101193.59
2023-05-21T14:37:01.743Z,101187.94
2023-05-21T14:39:28.524Z,101187.84
2023-05-21T14:41:55.482Z,101183.63
2023-05-21T14:44:22.275Z,101181.06
2023-05-21T14:46:49.223Z,101179.06
2023-05-21T14:49:16.079Z,101182.94
2023-05-21T14:51:43.725Z,101174.84
2023-05-21T14:54:10.860Z,101164.63
2023-05-21T14:56:37.669Z,101168.84
2023-05-21T14:59:04.619Z,101171.56
2023-05-21T15:01:31.767Z,101164.06
2023-05-21T15:03:58.915Z,101163.59
2023-05-21T15:06:25.786Z,101170.38
2023-05-21T15:08:53.285Z,101165.63
2023-05-21T15:11:21.614Z,101155.34
2023-05-21T15:13:48.516Z,101164.31
2023-05-21T15:16:17.281Z,101152.47
2023-05-21T15:18:45.903Z,101153.41
2023-05-21T15:21:12.787Z,101150.28
2023-05-21T15:23:39.656Z,101149.19
2023-05-21T15:26:06.558Z,101152.56
2023-05-21T15:28:33.380Z,101154.00
2023-05-21T15:31:00.751Z,101155.38
2023-05-21T15:33:27.585Z,101142.88
2023-05-21T15:35:54.443Z,101152.59
2023-05-21T15:38:21.275Z,101158.13
2023-05-21T15:40:48.273Z,101143.81
2023-05-21T15:43:15.334Z,101154.50
2023-05-21T15:45:42.204Z,101146.47
2023-05-21T15:48:09.361Z,101144.00
2023-05-21T15:50:36.364Z,101136.09
2023-05-21T15:53:04.785Z,101139.75
2023-05-21T15:55:34.908Z,101143.19
2023-05-21T15:58:03.877Z,101149.81
2023-05-21T16:00:30.823Z,101149.19
2023-05-21T16:02:58.177Z,101150.91
2023-05-21T16:05:26.674Z,101146.22
2023-05-21T16:07:53.659Z,101147.88
2023-05-21T16:10:21.517Z,101152.19
2023-05-21T16:12:48.387Z,101151.94
2023-05-21T16:15:15.302Z,101152.56
2023-05-21T16:17:42.286Z,101159.84
2023-05-21T16:20:09.637Z,101156.91
2023-05-21T16:22:36.534Z,101157.75
2023-05-21T16:25:03.767Z,101167.13
2023-05-21T16:27:30.743Z,101154.94
2023-05-21T16:29:58.340Z,101158.06
2023-05-21T16:32:25.725Z,101148.84
2023-05-21T16:34:52.616Z,101146.47
2023-05-21T16:37:19.482Z,101146.06
2023-05-21T16:39:46.282Z,101148.88
2023-05-21T16:42:13.106Z,101146.75
2023-05-21T16:44:40.229Z,101140.09
2023-05-21T16:47:07.039Z,101145.38
2023-05-21T16:49:33.897Z,101145.13
2023-05-21T16:52:01.615Z,101147.50
2023-05-21T16:54:28.574Z,101146.59
2023-05-21T16:56:55.772Z,101140.94
2023-05-21T16:59:22.651Z,101155.72
2023-05-21T17:01:49.736Z,101155.19
2023-05-21T17:04:16.616Z,101157.63
2023-05-21T17:06:43.421Z,101154.53
2023-05-21T17:09:10.236Z,101147.63
2023-05-21T17:11:37.195Z,101150.00
2023-05-21T17:14:04.042Z,101152.53
2023-05-21T17:16:31.033Z,101153.03
2023-05-21T17:18:57.974Z,101155.53
2023-05-21T17:21:26.442Z,101158.25
2023-05-21T17:23:53.379Z,101151.22
2023-05-21T17:26:21.765Z,101154.47
2023-05-21T17:28:48.620Z,101145.50
2023-05-21T17:31:16.361Z,101146.19
2023-05-21T17:33:43.444Z,101148.56
2023-05-21T17:36:10.705Z,101147.22
2023-05-21T17:38:37.533Z,101145.88
2023-05-21T17:41:04.797Z,101145.50
2023-05-21T17:43:32.078Z,101144.16
2023-05-21T17:45:59.082Z,101144.53
2023-05-21T17:48:26.504Z,101151.69
2023-05-21T17:50:53.533Z,101150.72
2023-05-21T17:53:20.652Z,101164.22
2023-05-21T17:55:47.830Z,101152.59
2023-05-21T17:58:14.788Z,101152.03
2023-05-21T18:00:41.725Z,101152.09
2023-05-21T18:03:08.697Z,101150.94
2023-05-21T18:05:36.325Z,101157.72
2023-05-21T18:08:03.509Z,101154.78
2023-05-21T18:10:30.789Z,101155.25
2023-05-21T18:12:57.858Z,101157.81
2023-05-21T18:15:24.686Z,101159.72
2023-05-21T18:17:51.639Z,101157.81
2023-05-21T18:20:18.718Z,101158.19
2023-05-21T18:22:45.650Z,101155.50
2023-05-21T18:25:12.540Z,101160.53
2023-05-21T18:27:39.380Z,101153.63
2023-05-21T18:30:07.365Z,101154.88
2023-05-21T18:32:34.834Z,101161.13
2023-05-21T18:35:02.363Z,101161.38
2023-05-21T18:37:29.557Z,101158.22
2023-05-21T18:39:56.388Z,101161.50
2023-05-21T18:42:23.331Z,101159.81
2023-05-21T18:44:53.086Z,101158.94
2023-05-21T18:47:19.962Z,101161.56
2023-05-21T18:49:46.809Z,101156.59
2023-05-21T18:52:14.105Z,101162.84
2023-05-21T18:54:41.002Z,101157.69
2023-05-21T18:57:07.896Z,101152.75
2023-05-21T18:59:34.772Z,101151.53
2023-05-21T19:02:01.687Z,101147.44
2023-05-21T19:04:28.809Z,101144.53
2023-05-21T19:06:55.914Z,101142.66
2023-05-21T19:09:22.812Z,101141.66
2023-05-21T19:11:51.004Z,101143.25
2023-05-21T19:14:17.806Z,101141.91
2023-05-21T19:16:44.732Z,101147.75
2023-05-21T19:19:11.689Z,101146.22
2023-05-21T19:21:39.129Z,101149.16
2023-05-21T19:24:06.856Z,101140.78
2023-05-21T19:26:33.750Z,101150.78
2023-05-21T19:29:00.766Z,101147.69
2023-05-21T19:31:27.872Z,101147.38
2023-05-21T19:33:54.820Z,101147.03
2023-05-21T19:36:22.293Z,101156.69
2023-05-21T19:38:50.907Z,101157.03
2023-05-21T19:41:19.625Z,101168.41
2023-05-21T19:43:46.608Z,101169.25
2023-05-21T19:46:18.059Z,101174.41
2023-05-21T19:48:46.964Z,101167.72
2023-05-21T19:51:13.790Z,101176.66
2023-05-21T19:53:40.777Z,101179.25
2023-05-21T19:56:08.386Z,101180.78
2023-05-21T19:58:35.338Z,101184.19
2023-05-21T20:01:03.487Z,101173.84
2023-05-21T20:03:35.795Z,101173.50
2023-05-21T20:06:03.602Z,101174.13
2023-05-21T20:08:30.899Z,101174.78
2023-05-21T20:10:57.830Z,101176.78
2023-05-21T20:13:24.833Z,101176.06
2023-05-21T20:15:51.799Z,101176.13
2023-05-21T20:18:21.478Z,101173.38
2023-05-21T20:20:49.184Z,101174.50
2023-05-21T20:23:16.034Z,101173.75
2023-05-21T20:25:42.962Z,101179.03
2023-05-21T20:28:09.895Z,101187.19
2023-05-21T20:30:58.005Z,101183.53
2023-05-21T20:33:27.225Z,101185.38
2023-05-21T20:35:54.044Z,101174.19
2023-05-21T20:38:21.077Z,101182.34
2023-05-21T20:40:48.938Z,101184.13
2023-05-21T20:43:15.853Z,101179.88
2023-05-21T20:45:43.606Z,101177.94
2023-05-21T20:48:12.102Z,101180.59
2023-05-21T20:50:40.938Z,101173.16
2023-05-21T20:53:08.755Z,101174.66
2023-05-21T20:55:35.817Z,101175.28
2023-05-21T20:58:05.130Z,101169.41
2023-05-21T21:00:33.381Z,101174.78
2023-05-21T21:03:03.780Z,101166.47
2023-05-21T21:05:31.059Z,101161.94
2023-05-21T21:08:02.381Z,101168.88
2023-05-21T21:10:29.440Z,101158.69
2023-05-21T21:12:56.325Z,101159.97
2023-05-21T21:15:23.133Z,101159.59
2023-05-21T21:17:50.041Z,101170.28
2023-05-21T21:20:18.579Z,101172.72
2023-05-21T21:22:46.491Z,101170.63
2023-05-21T21:25:16.761Z,101174.66
2023-05-21T21:27:43.777Z,101176.97
2023-05-21T21:30:11.259Z,101175.56
2023-05-21T21:32:38.242Z,101167.94
2023-05-21T21:35:06.276Z,101168.09
2023-05-21T21:37:33.176Z,101161.34
2023-05-21T21:40:00.023Z,101159.94
2023-05-21T21:42:26.937Z,101164.69
2023-05-21T21:44:53.820Z,101173.16
2023-05-21T21:47:20.637Z,101171.75
2023-05-21T21:49:48.132Z,101169.16
2023-05-21T21:52:17.119Z,101169.63
2023-05-21T21:54:44.374Z,101159.97
2023-05-21T21:57:11.234Z,101160.28
2023-05-21T21:59:38.836Z,101157.13
2023-05-21T22:02:06.247Z,101164.63
2023-05-21T22:04:33.234Z,101165.75
2023-05-21T22:07:01.742Z,101176.06
2023-05-21T22:09:28.842Z,101169.19
2023-05-21T22:11:56.477Z,101174.97
2023-05-21T22:14:23.350Z,101180.97
2023-05-21T22:16:53.168Z,101184.75
2023-05-21T22:19:22.097Z,101186.72
2023-05-21T22:21:49.477Z,101194.91
2023-05-21T22:24:30.972Z,101198.53
2023-05-21T22:26:59.198Z,101203.56
2023-05-21T22:29:26.022Z,101193.34
2023-05-21T22:31:52.949Z,101181.41
2023-05-21T22:34:20.176Z,101189.88
2023-05-21T22:36:47.402Z,101195.66
2023-05-21T22:39:14.224Z,101203.44
2023-05-21T22:41:41.261Z,101198.53
2023-05-21T22:44:08.066Z,101187.91
2023-05-21T22:46:35.551Z,101181.88
2023-05-21T22:49:02.981Z,101179.28
2023-05-21T22:51:34.397Z,101174.09
2023-05-21T22:54:01.825Z,101170.78
2023-05-21T22:56:29.212Z,101150.09
2023-05-21T22:58:56.785Z,101147.38
2023-05-21T23:01:23.941Z,101152.56
2023-05-21T23:03:51.811Z,101145.06
2023-05-21T23:06:18.822Z,101148.53
2023-05-21T23:08:45.916Z,101146.22
2023-05-21T23:11:12.813Z,101151.38
2023-05-21T23:13:39.714Z,101143.91
2023-05-21T23:16:07.371Z,101137.88
2023-05-21T23:18:35.434Z,101146.78
2023-05-21T23:21:02.672Z,101137.56
2023-05-21T23:23:29.706Z,101140.28
2023-05-21T23:25:59.140Z,101135.84
2023-05-21T23:28:26.458Z,101127.94
2023-05-21T23:30:53.798Z,101124.06
2023-05-21T23:33:21.558Z,101130.84
2023-05-21T23:35:49.270Z,101124.94
2023-05-21T23:38:16.096Z,101131.00
2023-05-21T23:40:43.392Z,101133.28
2023-05-21T23:43:10.247Z,101119.63
2023-05-21T23:45:37.277Z,101124.38
2023-05-21T23:48:04.396Z,101118.91
2023-05-21T23:50:31.314Z,101111.72
2023-05-21T23:52:59.286Z,101118.06
2023-05-21T23:55:26.233Z,101115.47
2023-05-21T23:57:53.158Z,101116.59
